Time;durP1;ratioP1;P1;durP2;ratioP2;P2;SDS_P1;SDS_P2;PMS_P1;PMS_P2;Temp;Humidity;BMP_temperature;BMP_pressure;BME280_temperature;BME280_humidity;BME280_pressure;Samples;Min_cycle;Max_cycle;Signal;HPM_P1;HPM_P2
2023/03/26 00:05:46;;;;;;;;;;;;;;;12.44;83.26;99900.25;7366549;19;20382;-61
2023/03/26 00:08:15;;;;;;;;;;;;;;;12.41;83.28;99900.63;7384441;19;20548;-60
2023/03/26 00:10:43;;;;;;;;;;;;;;;12.39;82.95;99889.44;7381247;19;19918;-61
2023/03/26 00:13:10;;;;;;;;;;;;;;;12.37;83.63;99893.28;7361548;19;19918;-60
2023/03/26 00:15:37;;;;;;;;;;;;;;;12.37;84.51;99880.91;7360077;19;19937;-62
2023/03/26 00:18:04;;;;;;;;;;;;;;;12.36;84.79;99871.38;7362188;19;19911;-63
2023/03/26 00:20:32;;;;;;;;;;;;;;;12.39;84.98;99867.56;7364091;19;19931;-62
2023/03/26 00:23:00;;;;;;;;;;;;;;;12.39;84.94;99868.34;7366849;19;20307;-60
2023/03/26 00:25:27;;;;;;;;;;;;;;;12.39;84.16;99860.44;7359544;19;20024;-61
2023/03/26 00:27:54;;;;;;;;;;;;;;;12.39;84.20;99857.00;7364098;19;19911;-64
2023/03/26 00:30:22;;;;;;;;;;;;;;;12.39;84.75;99857.00;7361410;19;20165;-62
2023/03/26 00:32:49;;;;;;;;;;;;;;;12.40;85.39;99855.97;7365257;19;19929;-59
2023/03/26 00:35:19;;;;;;;;;;;;;;;12.41;85.33;99853.16;7354923;19;19923;-64
2023/03/26 00:37:46;;;;;;;;;;;;;;;12.39;84.98;99839.31;7361325;19;20268;-60
2023/03/26 00:40:13;;;;;;;;;;;;;;;12.42;84.86;99840.78;7356755;19;19943;-59
2023/03/26 00:42:41;;;;;;;;;;;;;;;12.42;84.76;99833.69;7365193;19;19918;-60
2023/03/26 00:45:08;;;;;;;;;;;;;;;12.43;85.44;99834.50;7361652;19;19926;-60
2023/03/26 00:47:35;;;;;;;;;;;;;;;12.41;84.95;99837.31;7363849;19;20344;-60
2023/03/26 00:50:03;;;;;;;;;;;;;;;12.42;85.46;99831.06;7361710;19;20010;-61
2023/03/26 00:52:31;;;;;;;;;;;;;;;12.39;85.23;99822.69;7361814;19;19930;-59
2023/03/26 00:54:58;;;;;;;;;;;;;;;12.40;85.39;99822.50;7358867;19;19922;-60
2023/03/26 00:57:28;;;;;;;;;;;;;;;12.39;85.37;99822.69;7356055;19;21927;-61
2023/03/26 01:00:07;;;;;;;;;;;;;;;12.37;84.60;99819.44;7359080;19;19922;-63
2023/03/26 01:02:34;;;;;;;;;;;;;;;12.37;84.43;99816.78;7358072;19;20128;-60
2023/03/26 01:05:24;;;;;;;;;;;;;;;12.35;84.30;99810.88;7355298;19;20510;-60
2023/03/26 01:07:51;;;;;;;;;;;;;;;12.35;84.30;99802.97;7359721;19;19982;-58
2023/03/26 01:10:21;;;;;;;;;;;;;;;12.36;84.18;99802.78;7354552;19;19922;-60
2023/03/26 01:12:48;;;;;;;;;;;;;;;12.36;84.26;99788.78;7360335;19;19937;-63
2023/03/26 01:15:16;;;;;;;;;;;;;;;12.35;85.22;99789.78;7358272;19;19927;-62
2023/03/26 01:17:43;;;;;;;;;;;;;;;12.37;85.38;99782.50;7360392;19;19925;-60
2023/03/26 01:20:11;;;;;;;;;;;;;;;12.37;84.83;99772.75;7358893;19;19945;-60
2023/03/26 01:22:42;;;;;;;;;;;;;;;12.36;84.73;99762.38;7357143;19;19918;-62
2023/03/26 01:25:10;;;;;;;;;;;;;;;12.35;84.36;99752.84;7356725;19;19930;-59
2023/03/26 01:27:39;;;;;;;;;;;;;;;12.33;84.88;99750.41;7356057;19;19918;-60
2023/03/26 01:30:09;;;;;;;;;;;;;;;12.31;84.95;99755.06;7356735;19;19930;-62
2023/03/26 01:32:39;;;;;;;;;;;;;;;12.27;84.32;99751.16;7356809;19;20002;-62
2023/03/26 01:35:07;;;;;;;;;;;;;;;12.26;84.38;99743.44;7358434;19;19926;-59
2023/03/26 01:37:37;;;;;;;;;;;;;;;12.28;84.98;99736.16;7358199;19;19923;-61
2023/03/26 01:40:10;;;;;;;;;;;;;;;12.25;84.51;99729.44;7357644;19;19940;-60
2023/03/26 01:42:42;;;;;;;;;;;;;;;12.25;84.82;99732.06;7354954;19;20715;-61
2023/03/26 01:45:14;;;;;;;;;;;;;;;12.24;84.66;99725.16;7358650;19;19943;-60
2023/03/26 01:47:43;;;;;;;;;;;;;;;12.24;84.84;99722.53;7358569;19;19915;-60
2023/03/26 01:50:10;;;;;;;;;;;;;;;12.21;84.28;99727.38;7353258;19;20245;-60
2023/03/26 01:52:37;;;;;;;;;;;;;;;12.21;84.70;99717.63;7359535;19;19940;-60
2023/03/26 01:55:05;;;;;;;;;;;;;;;12.24;85.25;99719.09;7351693;19;19919;-61
2023/03/26 01:57:36;;;;;;;;;;;;;;;12.25;85.59;99716.25;7358027;19;20562;-60
2023/03/26 02:00:10;;;;;;;;;;;;;;;12.23;85.04;99709.56;7360804;19;19949;-60
2023/03/26 02:02:40;;;;;;;;;;;;;;;12.21;84.13;99701.81;7364091;19;19950;-61
2023/03/26 02:05:10;;;;;;;;;;;;;;;12.20;84.31;99697.53;7359400;19;19919;-60
2023/03/26 02:07:40;;;;;;;;;;;;;;;12.17;83.80;99691.84;7366883;19;19923;-58
2023/03/26 02:10:12;;;;;;;;;;;;;;;12.20;85.98;99684.34;7365905;19;20262;-62
2023/03/26 02:12:40;;;;;;;;;;;;;;;12.19;85.25;99680.09;7367429;19;20411;-61
2023/03/26 02:15:08;;;;;;;;;;;;;;;12.19;84.63;99684.56;7362831;19;19945;-59
2023/03/26 02:17:38;;;;;;;;;;;;;;;12.17;83.73;99682.13;7362377;19;19926;-59
2023/03/26 02:20:08;;;;;;;;;;;;;;;12.18;84.06;99680.31;7363210;19;19949;-61
2023/03/26 02:22:39;;;;;;;;;;;;;;;12.16;84.41;99675.22;7361357;19;19921;-60
2023/03/26 02:25:09;;;;;;;;;;;;;;;12.15;84.19;99670.94;7363830;19;19923;-59
2023/03/26 02:27:36;;;;;;;;;;;;;;;12.13;84.18;99665.06;7363611;19;20296;-62
2023/03/26 02:30:05;;;;;;;;;;;;;;;12.17;83.90;99662.84;7362443;19;19926;-62
2023/03/26 02:32:32;;;;;;;;;;;;;;;12.20;83.96;99659.81;7361848;19;20003;-60
2023/03/26 02:34:59;;;;;;;;;;;;;;;12.22;84.72;99660.44;7362947;19;19919;-62
2023/03/26 02:37:26;;;;;;;;;;;;;;;12.23;84.53;99659.44;7360992;19;20399;-62
2023/03/26 02:39:53;;;;;;;;;;;;;;;12.21;84.00;99648.25;7360643;19;19927;-61
2023/03/26 02:42:21;;;;;;;;;;;;;;;12.20;84.33;99647.44;7361127;19;20642;-59
2023/03/26 02:44:48;;;;;;;;;;;;;;;12.21;84.66;99653.53;7362648;19;19933;-62
2023/03/26 02:47:15;;;;;;;;;;;;;;;12.20;85.81;99649.25;7360846;19;19922;-62
2023/03/26 02:49:42;;;;;;;;;;;;;;;12.18;86.44;99651.28;7356860;19;20407;-61
2023/03/26 02:52:09;;;;;;;;;;;;;;;12.14;86.25;99644.78;7367229;19;19935;-63
2023/03/26 02:54:37;;;;;;;;;;;;;;;12.09;86.49;99637.41;7363705;19;19926;-60
2023/03/26 02:57:04;;;;;;;;;;;;;;;12.06;87.15;99637.00;7364825;19;20252;-62
2023/03/26 02:59:31;;;;;;;;;;;;;;;12.03;88.26;99640.03;7363727;19;20376;-59
2023/03/26 03:01:58;;;;;;;;;;;;;;;11.97;89.17;99623.97;7364138;19;19919;-60
2023/03/26 03:04:26;;;;;;;;;;;;;;;11.94;89.79;99624.34;7361213;19;20490;-61
2023/03/26 03:06:56;;;;;;;;;;;;;;;11.89;90.68;99620.63;7364201;19;20385;-59
2023/03/26 03:09:24;;;;;;;;;;;;;;;11.85;90.75;99616.75;7359646;19;19921;-63
2023/03/26 03:11:51;;;;;;;;;;;;;;;11.83;92.13;99611.69;7361951;19;20243;-59
2023/03/26 03:14:19;;;;;;;;;;;;;;;11.79;92.17;99609.63;7363497;19;19940;-61
2023/03/26 03:16:46;;;;;;;;;;;;;;;11.75;92.76;99611.81;7361433;19;19943;-60
2023/03/26 03:19:13;;;;;;;;;;;;;;;11.73;93.38;99602.50;7364412;19;20026;-60
2023/03/26 03:21:41;;;;;;;;;;;;;;;11.66;92.39;99602.41;7360864;19;20280;-61
2023/03/26 03:24:08;;;;;;;;;;;;;;;11.62;92.37;99606.41;7362414;19;19982;-61
2023/03/26 03:26:36;;;;;;;;;;;;;;;11.61;93.34;99607.41;7357769;19;19919;-61
2023/03/26 03:29:03;;;;;;;;;;;;;;;11.61;93.48;99598.69;7360341;19;19951;-60
2023/03/26 03:31:30;;;;;;;;;;;;;;;11.57;92.98;99595.63;7360637;19;20330;-61
2023/03/26 03:33:58;;;;;;;;;;;;;;;11.53;92.61;99591.72;7361667;19;19915;-62
2023/03/26 03:36:26;;;;;;;;;;;;;;;11.50;93.17;99590.31;7360799;19;19968;-60
2023/03/26 03:38:54;;;;;;;;;;;;;;;11.47;93.39;99595.97;7357304;19;19927;-61
2023/03/26 03:41:21;;;;;;;;;;;;;;;11.43;93.45;99588.59;7357211;19;19923;-60
2023/03/26 03:43:48;;;;;;;;;;;;;;;11.41;94.21;99590.63;7362572;19;19919;-59
2023/03/26 03:46:16;;;;;;;;;;;;;;;11.41;94.58;99590.63;7361423;19;20098;-60
2023/03/26 03:48:48;;;;;;;;;;;;;;;11.37;94.44;99587.56;7360621;19;19936;-62
2023/03/26 03:51:17;;;;;;;;;;;;;;;11.37;94.19;99594.66;7362090;19;20241;-60
2023/03/26 03:53:44;;;;;;;;;;;;;;;11.35;94.43;99589.56;7359600;19;20289;-62
2023/03/26 03:56:13;;;;;;;;;;;;;;;11.34;94.59;99584.47;7354606;19;20133;-61
2023/03/26 03:58:41;;;;;;;;;;;;;;;11.36;95.72;99580.66;7358434;19;20557;-60
2023/03/26 04:01:08;;;;;;;;;;;;;;;11.33;95.26;99582.84;7356891;19;20006;-63
2023/03/26 04:03:37;;;;;;;;;;;;;;;11.27;95.09;99579.16;7361100;19;20548;-60
2023/03/26 04:06:06;;;;;;;;;;;;;;;11.25;94.62;99575.88;7360438;19;19949;-60
2023/03/26 04:08:33;;;;;;;;;;;;;;;11.26;95.36;99584.63;7360491;19;20347;-60
2023/03/26 04:11:00;;;;;;;;;;;;;;;11.24;95.85;99574.25;7361738;19;20251;-60
2023/03/26 04:13:27;;;;;;;;;;;;;;;11.24;96.10;99571.63;7363247;19;19918;-61
2023/03/26 04:15:55;;;;;;;;;;;;;;;11.25;95.89;99567.19;7358303;19;19947;-61
2023/03/26 04:18:23;;;;;;;;;;;;;;;11.23;95.39;99569.16;7359843;19;19919;-62
2023/03/26 04:20:50;;;;;;;;;;;;;;;11.25;95.88;99570.63;7357391;19;19959;-61
2023/03/26 04:23:17;;;;;;;;;;;;;;;11.26;95.62;99569.63;7356018;19;20356;-61
2023/03/26 04:25:47;;;;;;;;;;;;;;;11.31;96.90;99567.25;7356323;19;20262;-60
2023/03/26 04:28:21;;;;;;;;;;;;;;;11.32;97.36;99566.25;7359854;19;19922;-60
2023/03/26 04:30:52;;;;;;;;;;;;;;;11.31;96.43;99569.88;7360302;19;19955;-60
2023/03/26 04:33:20;;;;;;;;;;;;;;;11.30;95.82;99562.16;7359791;19;20441;-61
2023/03/26 04:35:47;;;;;;;;;;;;;;;11.30;95.95;99559.53;7359393;19;19923;-62
2023/03/26 04:38:17;;;;;;;;;;;;;;;11.32;96.47;99552.25;7361467;19;19934;-61
2023/03/26 04:40:46;;;;;;;;;;;;;;;11.29;95.85;99550.81;7356839;19;19921;-60
2023/03/26 04:43:17;;;;;;;;;;;;;;;11.27;94.83;99559.91;7360202;19;19941;-61
2023/03/26 04:45:46;;;;;;;;;;;;;;;11.24;94.19;99557.63;7361318;19;19921;-60
2023/03/26 04:48:13;;;;;;;;;;;;;;;11.22;94.59;99551.75;7360213;19;20356;-60
2023/03/26 04:50:42;;;;;;;;;;;;;;;11.18;94.38;99561.03;7364657;19;19913;-60
2023/03/26 04:53:12;;;;;;;;;;;;;;;11.13;93.42;99564.22;7364713;19;20549;-61
2023/03/26 04:55:44;;;;;;;;;;;;;;;11.13;92.80;99567.66;7360563;19;19922;-59
2023/03/26 04:58:12;;;;;;;;;;;;;;;11.11;93.15;99567.06;7360873;19;19923;-62
2023/03/26 05:00:40;;;;;;;;;;;;;;;11.04;92.61;99566.16;7364351;19;20214;-62
2023/03/26 05:03:09;;;;;;;;;;;;;;;11.02;92.47;99570.00;7364236;19;19927;-59
2023/03/26 05:05:37;;;;;;;;;;;;;;;10.95;90.98;99563.84;7362656;19;19978;-60
2023/03/26 05:08:04;;;;;;;;;;;;;;;10.93;90.03;99571.91;7360034;19;19919;-61
2023/03/26 05:10:32;;;;;;;;;;;;;;;10.87;90.33;99570.03;7357408;19;20281;-60
2023/03/26 05:12:59;;;;;;;;;;;;;;;10.82;90.30;99577.66;7363273;19;19919;-60
2023/03/26 05:15:27;;;;;;;;;;;;;;;10.78;90.50;99571.13;7359953;19;20340;-61
2023/03/26 05:17:54;;;;;;;;;;;;;;;10.73;90.21;99576.97;7359280;19;19957;-60
2023/03/26 05:20:25;;;;;;;;;;;;;;;10.74;90.93;99577.78;7359347;19;20392;-62
2023/03/26 05:22:52;;;;;;;;;;;;;;;10.70;91.20;99581.78;7360780;19;20516;-61
2023/03/26 05:25:20;;;;;;;;;;;;;;;10.64;90.91;99583.34;7355561;19;19922;-61
2023/03/26 05:27:47;;;;;;;;;;;;;;;10.59;90.79;99585.69;7365001;19;19935;-61
2023/03/26 05:30:16;;;;;;;;;;;;;;;10.58;91.56;99585.88;7360665;19;19974;-61
2023/03/26 05:32:43;;;;;;;;;;;;;;;10.56;91.39;99582.63;7357770;19;19919;-62
2023/03/26 05:35:11;;;;;;;;;;;;;;;10.53;91.73;99591.69;7360154;19;19919;-61
2023/03/26 05:37:39;;;;;;;;;;;;;;;10.55;92.54;99594.13;7365898;19;20478;-67
2023/03/26 05:40:10;;;;;;;;;;;;;;;10.52;92.67;99592.69;7361066;19;20566;-62
2023/03/26 05:42:38;;;;;;;;;;;;;;;10.53;92.67;99594.31;7366343;19;19923;-61
2023/03/26 05:45:06;;;;;;;;;;;;;;;10.45;91.67;99594.44;7359503;19;19918;-62
2023/03/26 05:47:33;;;;;;;;;;;;;;;10.48;92.10;99593.22;7360835;19;19935;-63
2023/03/26 05:50:01;;;;;;;;;;;;;;;10.50;92.85;99589.44;7361841;19;19915;-64
2023/03/26 05:52:28;;;;;;;;;;;;;;;10.52;92.59;99583.97;7363489;19;19938;-61
2023/03/26 05:54:55;;;;;;;;;;;;;;;10.54;92.65;99582.81;7360045;19;20201;-61
2023/03/26 05:57:22;;;;;;;;;;;;;;;10.55;92.97;99579.19;7360126;19;19919;-60
2023/03/26 05:59:50;;;;;;;;;;;;;;;10.56;92.78;99580.00;7361714;19;19996;-62
2023/03/26 06:02:17;;;;;;;;;;;;;;;10.55;92.45;99583.63;7360783;19;19929;-62
2023/03/26 06:04:49;;;;;;;;;;;;;;;10.53;92.70;99585.59;7361247;19;20299;-64
2023/03/26 06:07:17;;;;;;;;;;;;;;;10.52;92.69;99586.59;7362457;19;20366;-61
2023/03/26 06:09:45;;;;;;;;;;;;;;;10.52;92.57;99590.06;7362196;19;19911;-61
2023/03/26 06:12:12;;;;;;;;;;;;;;;10.51;93.23;99579.75;7364709;19;19926;-60
2023/03/26 06:14:41;;;;;;;;;;;;;;;10.50;92.94;99580.72;7361135;19;19922;-60
2023/03/26 06:17:09;;;;;;;;;;;;;;;10.51;93.83;99572.66;7358538;19;19919;-60
2023/03/26 06:19:36;;;;;;;;;;;;;;;10.54;94.72;99584.63;7368611;19;19923;-59
2023/03/26 06:22:04;;;;;;;;;;;;;;;10.52;93.75;99579.53;7355840;19;19937;-60
2023/03/26 06:24:32;;;;;;;;;;;;;;;10.53;93.54;99585.59;7357260;19;19941;-61
2023/03/26 06:26:59;;;;;;;;;;;;;;;10.53;93.78;99582.97;7356610;19;19919;-63
2023/03/26 06:29:26;;;;;;;;;;;;;;;10.53;94.43;99585.59;7360764;19;19990;-63
2023/03/26 06:31:54;;;;;;;;;;;;;;;10.52;94.33;99592.69;7354853;19;19923;-63
2023/03/26 06:34:23;;;;;;;;;;;;;;;10.53;94.45;99604.03;7357447;19;19915;-61
2023/03/26 06:36:51;;;;;;;;;;;;;;;10.50;94.17;99599.97;7352752;19;21454;-62
2023/03/26 06:39:19;;;;;;;;;;;;;;;10.47;93.41;99600.31;7354375;19;19915;-57
2023/03/26 06:41:46;;;;;;;;;;;;;;;10.46;93.74;99609.22;7352506;19;19919;-60
2023/03/26 06:44:13;;;;;;;;;;;;;;;10.48;93.99;99617.72;7355882;19;20001;-62
2023/03/26 06:46:40;;;;;;;;;;;;;;;10.50;94.54;99620.19;7359118;19;19914;-63
2023/03/26 06:49:08;;;;;;;;;;;;;;;10.52;94.70;99618.97;7362306;19;19927;-60
2023/03/26 06:51:37;;;;;;;;;;;;;;;10.49;94.17;99624.63;7363541;19;19986;-63
2023/03/26 06:54:05;;;;;;;;;;;;;;;10.42;93.68;99626.31;7363347;19;19957;-61
2023/03/26 06:56:32;;;;;;;;;;;;;;;10.42;93.67;99628.97;7362525;19;20533;-62
2023/03/26 06:59:00;;;;;;;;;;;;;;;10.45;93.80;99638.31;7364698;19;19922;-61
2023/03/26 07:01:27;;;;;;;;;;;;;;;10.43;93.67;99650.81;7361687;19;20413;-61
2023/03/26 07:03:55;;;;;;;;;;;;;;;10.39;93.31;99646.91;7364481;19;19945;-60
2023/03/26 07:06:26;;;;;;;;;;;;;;;10.39;92.59;99658.25;7360846;19;19918;-62
2023/03/26 07:08:55;;;;;;;;;;;;;;;10.38;92.69;99663.69;7360593;19;20179;-62
2023/03/26 07:11:25;;;;;;;;;;;;;;;10.39;93.03;99668.78;7359389;19;20300;-61
2023/03/26 07:13:55;;;;;;;;;;;;;;;10.40;92.38;99674.84;7362304;19;19946;-61
2023/03/26 07:16:22;;;;;;;;;;;;;;;10.37;91.64;99688.34;7361199;19;19925;-63
2023/03/26 07:18:54;;;;;;;;;;;;;;;10.33;91.33;99690.50;7360517;19;19927;-61
2023/03/26 07:21:22;;;;;;;;;;;;;;;10.31;92.07;99692.50;7360913;19;19918;-63
2023/03/26 07:23:55;;;;;;;;;;;;;;;10.30;92.41;99693.53;7360566;19;20528;-60
2023/03/26 07:26:26;;;;;;;;;;;;;;;10.30;92.29;99693.53;7362423;19;20332;-59
2023/03/26 07:28:58;;;;;;;;;;;;;;;10.30;92.16;99706.66;7359968;19;19919;-61
2023/03/26 07:31:34;;;;;;;;;;;;;;;10.27;91.99;99702.56;7360353;19;19927;-61
2023/03/26 07:34:06;;;;;;;;;;;;;;;10.29;92.99;99713.72;7362202;19;19926;-62
2023/03/26 07:36:44;;;;;;;;;;;;;;;10.28;92.33;99704.19;7359569;19;19923;-61
2023/03/26 07:39:14;;;;;;;;;;;;;;;10.31;92.87;99710.91;7362575;19;19958;-63
2023/03/26 07:41:49;;;;;;;;;;;;;;;10.29;92.87;99710.28;7358009;19;19930;-62
2023/03/26 07:44:18;;;;;;;;;;;;;;;10.29;92.85;99713.72;7360638;19;20048;-61
2023/03/26 07:46:52;;;;;;;;;;;;;;;10.25;92.05;99715.09;7359051;19;19978;-63
2023/03/26 07:49:25;;;;;;;;;;;;;;;10.23;92.27;99718.88;7362431;19;19945;-61
2023/03/26 07:51:54;;;;;;;;;;;;;;;10.21;91.58;99721.66;7362010;19;19990;-63
2023/03/26 07:54:22;;;;;;;;;;;;;;;10.16;90.79;99729.28;7357067;19;19922;-61
2023/03/26 07:56:55;;;;;;;;;;;;;;;10.17;91.34;99732.72;7355466;19;19934;-60
2023/03/26 07:59:26;;;;;;;;;;;;;;;10.17;91.16;99735.34;7361955;19;19923;-61
2023/03/26 08:01:56;;;;;;;;;;;;;;;10.16;90.95;99742.41;7354123;19;19945;-61
2023/03/26 08:04:26;;;;;;;;;;;;;;;10.18;91.50;99743.06;7356985;19;20310;-62
2023/03/26 08:06:58;;;;;;;;;;;;;;;10.19;91.70;99743.88;7359054;19;19914;-63
2023/03/26 08:09:59;;;;;;;;;;;;;;;10.18;91.32;99744.88;7357862;19;19923;-62
2023/03/26 08:12:34;;;;;;;;;;;;;;;10.18;90.31;99750.94;7359607;19;19955;-63
2023/03/26 08:15:06;;;;;;;;;;;;;;;10.21;90.60;99755.03;7358917;19;19926;-61
2023/03/26 08:17:38;;;;;;;;;;;;;;;10.25;91.28;99751.06;7361190;19;19919;-62
2023/03/26 08:20:11;;;;;;;;;;;;;;;10.27;90.79;99759.56;7359675;19;19929;-61
2023/03/26 08:22:41;;;;;;;;;;;;;;;10.30;91.17;99772.38;7356226;19;19982;-62
2023/03/26 08:25:17;;;;;;;;;;;;;;;10.31;90.64;99775.84;7357536;19;19919;-60
2023/03/26 08:27:50;;;;;;;;;;;;;;;10.29;90.36;99774.19;7358539;19;19934;-61
2023/03/26 08:30:20;;;;;;;;;;;;;;;10.32;90.82;99777.44;7360542;19;19922;-62
2023/03/26 08:32:53;;;;;;;;;;;;;;;10.34;90.98;99780.72;7359163;19;19923;-62
2023/03/26 08:35:24;;;;;;;;;;;;;;;10.32;90.52;99786.16;7358261;19;21500;-60
2023/03/26 08:37:52;;;;;;;;;;;;;;;10.33;91.00;99787.78;7361838;19;19945;-61
2023/03/26 08:40:25;;;;;;;;;;;;;;;10.33;91.21;99786.97;7355958;19;20228;-61
2023/03/26 08:43:00;;;;;;;;;;;;;;;10.35;91.75;99793.72;7358324;19;20010;-61
2023/03/26 08:45:32;;;;;;;;;;;;;;;10.42;93.24;99789.34;7357861;19;19927;-61
2023/03/26 08:48:02;;;;;;;;;;;;;;;10.45;93.38;99798.72;7358120;19;19922;-62
2023/03/26 08:50:33;;;;;;;;;;;;;;;10.46;93.25;99801.19;7361110;19;19919;-63
2023/03/26 08:53:04;;;;;;;;;;;;;;;10.47;92.93;99808.06;7357987;19;19961;-61
2023/03/26 08:55:37;;;;;;;;;;;;;;;10.50;92.94;99805.09;7355603;19;19957;-63
2023/03/26 08:58:12;;;;;;;;;;;;;;;10.52;92.55;99810.97;7360124;19;19923;-62
2023/03/26 09:00:40;;;;;;;;;;;;;;;10.57;92.98;99818.31;7357375;19;19919;-61
2023/03/26 09:03:12;;;;;;;;;;;;;;;10.62;93.80;99815.97;7354946;19;19918;-62
2023/03/26 09:05:53;;;;;;;;;;;;;;;10.64;93.75;99819.25;7358183;19;19929;-59
2023/03/26 09:08:28;;;;;;;;;;;;;;;10.61;92.95;99830.16;7358630;19;20463;-61
2023/03/26 09:11:02;;;;;;;;;;;;;;;10.64;93.11;99840.28;7358306;19;20236;-62
2023/03/26 09:13:38;;;;;;;;;;;;;;;10.71;93.47;99823.63;7358473;19;19922;-61
2023/03/26 09:16:10;;;;;;;;;;;;;;;10.70;92.27;99837.78;7358700;19;19929;-61
2023/03/26 09:18:42;;;;;;;;;;;;;;;10.68;91.08;99845.03;7356922;19;20442;-61
2023/03/26 09:21:13;;;;;;;;;;;;;;;10.67;90.77;99850.44;7353892;19;20295;-60
2023/03/26 09:23:52;;;;;;;;;;;;;;;10.60;90.19;99860.06;7357181;19;19951;-61
2023/03/26 09:26:38;;;;;;;;;;;;;;;10.56;90.08;99861.41;7354773;19;20272;-61
2023/03/26 09:29:11;;;;;;;;;;;;;;;10.61;90.69;99865.16;7358530;19;19914;-62
2023/03/26 09:31:45;;;;;;;;;;;;;;;10.62;89.56;99873.84;7358644;19;19934;-62
2023/03/26 09:34:22;;;;;;;;;;;;;;;10.65;90.34;99869.06;7359561;19;19921;-62
2023/03/26 09:37:01;;;;;;;;;;;;;;;10.73;91.20;99873.44;7357581;19;19915;-58
2023/03/26 09:39:36;;;;;;;;;;;;;;;10.79;91.48;99875.34;7357113;19;19919;-60
2023/03/26 09:42:15;;;;;;;;;;;;;;;10.84;91.35;99882.72;7353651;19;20653;-62
2023/03/26 09:44:52;;;;;;;;;;;;;;;10.89;91.06;99885.63;7352958;19;20804;-59
2023/03/26 09:47:33;;;;;;;;;;;;;;;10.94;91.56;99893.81;7354842;19;19933;-59
2023/03/26 09:50:16;;;;;;;;;;;;;;;11.01;91.62;99897.38;7352349;19;20274;-60
2023/03/26 09:52:56;;;;;;;;;;;;;;;11.05;91.15;99898.66;7358910;19;19930;-62
2023/03/26 09:55:29;;;;;;;;;;;;;;;11.10;91.26;99893.66;7353164;19;19926;-62
2023/03/26 09:58:02;;;;;;;;;;;;;;;11.17;91.12;99909.56;7350992;19;19922;-60
2023/03/26 10:00:36;;;;;;;;;;;;;;;11.19;90.54;99902.28;7355491;19;19969;-60
2023/03/26 10:03:23;;;;;;;;;;;;;;;11.25;91.16;99909.47;7351511;19;21575;-63
2023/03/26 10:05:56;;;;;;;;;;;;;;;11.29;91.18;99913.38;7352779;19;19930;-60
2023/03/26 10:08:28;;;;;;;;;;;;;;;11.32;91.51;99918.31;7355511;19;19911;-60
2023/03/26 10:11:04;;;;;;;;;;;;;;;11.38;91.92;99925.47;7356309;19;20321;-61
2023/03/26 10:13:42;;;;;;;;;;;;;;;11.39;90.91;99933.19;7355788;19;19911;-61
2023/03/26 10:16:19;;;;;;;;;;;;;;;11.44;90.00;99940.53;7355675;19;20337;-61
2023/03/26 10:18:51;;;;;;;;;;;;;;;11.50;90.68;99945.91;7354032;19;19921;-60
2023/03/26 10:21:27;;;;;;;;;;;;;;;11.56;89.55;99947.84;7358770;19;19978;-62
2023/03/26 10:24:04;;;;;;;;;;;;;;;11.61;89.21;99954.38;7360841;19;19990;-62
2023/03/26 10:26:35;;;;;;;;;;;;;;;11.64;89.35;99957.47;7361045;19;19919;-63
2023/03/26 10:29:09;;;;;;;;;;;;;;;11.67;89.58;99958.94;7365157;19;19919;-61
2023/03/26 10:31:45;;;;;;;;;;;;;;;11.67;88.88;99969.47;7361961;19;20323;-62
2023/03/26 10:34:30;;;;;;;;;;;;;;;11.65;89.15;99976.72;7358233;19;19942;-61
2023/03/26 10:37:01;;;;;;;;;;;;;;;11.67;89.70;99980.00;7353857;19;19911;-60
2023/03/26 10:39:30;;;;;;;;;;;;;;;11.70;88.33;99983.09;7357004;19;19935;-61
2023/03/26 10:42:07;;;;;;;;;;;;;;;11.58;85.73;99998.50;7362577;19;19944;-61
2023/03/26 10:44:39;;;;;;;;;;;;;;;11.54;86.46;99999.88;7362484;19;19986;-60
2023/03/26 10:47:08;;;;;;;;;;;;;;;11.56;87.42;100004.97;7363500;19;21793;-59
2023/03/26 10:49:36;;;;;;;;;;;;;;;11.57;86.35;100014.53;7362255;19;20027;-59
2023/03/26 10:52:06;;;;;;;;;;;;;;;11.57;87.24;100009.25;7363068;19;20378;-61
2023/03/26 10:54:36;;;;;;;;;;;;;;;11.61;88.07;100015.81;7358373;19;20387;-61
2023/03/26 10:59:35;;;;;;;;;;;;;;;11.80;87.57;100033.75;7366077;19;20574;-61
2023/03/26 11:02:03;;;;;;;;;;;;;;;11.86;87.23;100035.66;7361481;19;19923;-62
2023/03/26 11:04:37;;;;;;;;;;;;;;;11.91;87.27;100035.94;7362264;19;19919;-63
2023/03/26 11:07:12;;;;;;;;;;;;;;;11.95;86.96;100044.31;7363665;19;19929;-61
2023/03/26 11:09:39;;;;;;;;;;;;;;;11.97;85.90;100048.41;7362521;19;19919;-61
2023/03/26 11:12:08;;;;;;;;;;;;;;;12.00;86.57;100057.75;7363533;19;19960;-62
2023/03/26 11:14:55;;;;;;;;;;;;;;;12.03;86.78;100054.78;7362780;19;20344;-60
2023/03/26 11:17:25;;;;;;;;;;;;;;;12.09;85.56;100061.94;7362632;19;20577;-64
2023/03/26 11:19:58;;;;;;;;;;;;;;;12.11;85.68;100067.88;7358500;19;20375;-61
2023/03/26 11:22:27;;;;;;;;;;;;;;;12.07;82.90;100073.69;7360566;19;19915;-61
2023/03/26 11:24:57;;;;;;;;;;;;;;;12.12;83.39;100085.31;7360807;19;19945;-61
2023/03/26 11:27:27;;;;;;;;;;;;;;;12.11;82.05;100080.22;7365185;19;19922;-61
2023/03/26 11:30:01;;;;;;;;;;;;;;;12.18;82.90;100089.88;7360502;19;19945;-60
2023/03/26 11:32:35;;;;;;;;;;;;;;;12.04;80.02;100095.16;7359167;19;19946;-62
2023/03/26 11:35:06;;;;;;;;;;;;;;;11.98;80.69;100107.22;7360769;19;20011;-62
2023/03/26 11:37:38;;;;;;;;;;;;;;;11.95;80.31;100102.31;7362327;19;19922;-62
2023/03/26 11:40:10;;;;;;;;;;;;;;;11.93;81.64;100115.69;7360309;19;20343;-61
2023/03/26 11:42:38;;;;;;;;;;;;;;;11.88;80.81;100117.22;7359744;19;20383;-62
2023/03/26 11:45:07;;;;;;;;;;;;;;;11.71;79.68;100118.31;7361463;19;19930;-63
2023/03/26 11:50:14;;;;;;;;;;;;;;;11.65;82.53;100134.81;7361335;19;19919;-61
2023/03/26 11:52:41;;;;;;;;;;;;;;;11.60;82.14;100148.53;7359250;19;20007;-62
2023/03/26 11:55:11;;;;;;;;;;;;;;;11.59;83.80;100160.06;7355112;19;20338;-61
2023/03/26 12:00:16;;;;;;;;;;;;;;;11.45;85.91;100169.56;7360474;19;19919;-61
2023/03/26 12:02:44;;;;;;;;;;;;;;;11.45;86.95;100174.81;7362855;19;20382;-63
2023/03/26 12:05:12;;;;;;;;;;;;;;;11.44;87.29;100180.25;7357694;19;19926;-63
2023/03/26 12:07:44;;;;;;;;;;;;;;;11.39;87.33;100183.41;7359943;19;19937;-61
2023/03/26 12:10:14;;;;;;;;;;;;;;;11.42;88.01;100200.69;7359746;19;20033;-60
2023/03/26 12:12:45;;;;;;;;;;;;;;;11.40;88.21;100200.03;7360417;19;19982;-63
2023/03/26 12:15:13;;;;;;;;;;;;;;;11.38;90.17;100216.00;7356516;19;19915;-68
2023/03/26 12:17:41;;;;;;;;;;;;;;;11.30;89.22;100210.78;7359678;19;19925;-65
2023/03/26 12:20:19;;;;;;;;;;;;;;;11.29;87.96;100227.59;7356477;19;19926;-66
2023/03/26 12:22:46;;;;;;;;;;;;;;;11.34;87.65;100235.78;7358822;19;19919;-63
2023/03/26 12:25:17;;;;;;;;;;;;;;;11.39;86.80;100232.63;7357605;19;19918;-63
2023/03/26 12:30:25;;;;;;;;;;;;;;;11.40;86.69;100240.38;7358564;19;20715;-64
2023/03/26 12:32:56;;;;;;;;;;;;;;;11.48;86.77;100257.94;7359059;19;20352;-63
2023/03/26 12:35:26;;;;;;;;;;;;;;;11.50;86.20;100262.06;7359083;19;20558;-63
2023/03/26 12:38:01;;;;;;;;;;;;;;;11.51;84.72;100260.25;7359970;19;19949;-59
2023/03/26 12:40:32;;;;;;;;;;;;;;;11.59;85.24;100268.09;7356608;19;19930;-61
2023/03/26 12:43:00;;;;;;;;;;;;;;;11.62;85.55;100280.13;7357188;19;20358;-63
2023/03/26 12:45:52;;;;;;;;;;;;;;;11.66;84.79;100276.94;7359192;19;19930;-66
2023/03/26 12:48:42;;;;;;;;;;;;;;;11.79;82.88;100279.03;7358662;19;19919;-62
2023/03/26 12:51:12;;;;;;;;;;;;;;;11.93;80.28;100288.84;7358988;19;19999;-61
2023/03/26 12:53:40;;;;;;;;;;;;;;;11.96;79.11;100294.59;7360468;19;20377;-62
2023/03/26 12:56:08;;;;;;;;;;;;;;;11.97;77.96;100301.50;7355767;19;19915;-62
2023/03/26 12:58:37;;;;;;;;;;;;;;;11.94;78.16;100312.38;7359452;19;20339;-63
2023/03/26 13:01:07;;;;;;;;;;;;;;;11.87;79.03;100315.91;7358112;19;20794;-62
2023/03/26 13:03:36;;;;;;;;;;;;;;;11.84;79.95;100329.41;7358230;19;19930;-62
2023/03/26 13:06:07;;;;;;;;;;;;;;;11.60;78.09;100335.59;7359124;19;20572;-62
2023/03/26 13:08:38;;;;;;;;;;;;;;;11.23;78.49;100343.31;7356830;19;19923;-62
2023/03/26 13:11:06;;;;;;;;;;;;;;;11.31;79.38;100354.66;7357251;19;19951;-62
2023/03/26 13:13:36;;;;;;;;;;;;;;;11.21;78.19;100354.03;7358012;19;19947;-62
2023/03/26 13:16:12;;;;;;;;;;;;;;;11.19;78.02;100366.53;7356327;19;19922;-62